createdAt,value
2023-05-25T01:23:15.079Z,78.98
2023-05-25T01:26:08.662Z,79.13
2023-05-25T01:32:52.028Z,79.66
2023-05-25T01:36:12.282Z,79.58
2023-05-25T01:38:52.571Z,79.22
2023-05-25T01:46:38.076Z,78.13
2023-05-25T01:49:29.930Z,78.27
2023-05-25T01:52:25.579Z,78.68
2023-05-25T01:55:11.790Z,78.84
2023-05-25T01:57:51.894Z,79.09
2023-05-25T02:00:23.921Z,79.43
2023-05-25T02:03:28.313Z,79.50
2023-05-25T02:06:02.329Z,79.70
2023-05-25T02:09:00.528Z,79.82
2023-05-25T02:11:37.286Z,80.08
2023-05-25T02:24:38.078Z,80.56
2023-05-25T02:36:10.387Z,81.10
2023-05-25T02:38:56.884Z,81.19
2023-05-25T02:46:48.154Z,81.12
2023-05-25T03:21:44.691Z,74.27
2023-05-25T03:24:17.061Z,74.65
2023-05-25T03:27:02.405Z,75.02
2023-05-25T03:29:34.143Z,75.38
2023-05-25T03:38:27.477Z,76.07
2023-05-25T03:41:01.322Z,76.96
2023-05-25T03:43:53.387Z,77.40
2023-05-25T03:47:41.909Z,77.85
2023-05-25T03:50:31.772Z,78.83
2023-05-25T03:53:08.849Z,79.59
2023-05-25T03:56:14.272Z,80.12
2023-05-25T03:59:14.141Z,80.92
2023-05-25T04:01:51.623Z,81.45
2023-05-25T04:04:25.029Z,81.81
2023-05-25T04:19:56.164Z,82.80
2023-05-25T04:22:31.167Z,82.54
2023-05-25T04:29:45.218Z,82.28
2023-05-25T04:33:05.319Z,82.35
2023-05-25T04:35:54.588Z,82.48
2023-05-25T04:38:31.263Z,82.08
2023-05-25T04:41:06.470Z,81.62
2023-05-25T04:43:40.338Z,80.81
2023-05-25T04:46:16.880Z,80.45
2023-05-25T04:48:56.754Z,80.47
2023-05-25T04:51:46.092Z,80.21
2023-05-25T04:54:44.548Z,80.01
2023-05-25T04:57:23.820Z,79.63
2023-05-25T05:00:14.073Z,79.32
2023-05-25T05:03:09.769Z,79.12
2023-05-25T05:05:43.461Z,78.73
2023-05-25T05:08:53.519Z,78.37
2023-05-25T05:11:51.386Z,77.92
2023-05-25T05:14:22.642Z,77.87
2023-05-25T05:17:16.926Z,77.51
2023-05-25T05:20:13.290Z,77.09
2023-05-25T05:24:05.419Z,77.07
2023-05-25T05:26:56.716Z,77.24
2023-05-25T05:33:46.912Z,76.45
2023-05-25T05:36:24.537Z,76.53
2023-05-25T05:39:08.990Z,76.54
2023-05-25T05:41:46.801Z,76.62
2023-05-25T05:44:17.996Z,76.77
2023-05-25T05:47:01.171Z,76.68
2023-05-25T05:49:48.494Z,76.62
2023-05-25T05:52:31.654Z,76.78
2023-05-25T05:55:01.134Z,76.95
2023-05-25T05:57:33.902Z,76.60
2023-05-25T06:00:07.979Z,75.71
2023-05-25T06:03:37.133Z,75.58
2023-05-25T06:06:21.179Z,75.03
2023-05-25T06:09:18.676Z,74.39
2023-05-25T06:11:47.973Z,72.77
2023-05-25T06:14:26.050Z,72.54
2023-05-25T06:17:03.898Z,72.32
2023-05-25T06:19:35.890Z,71.81
2023-05-25T06:22:13.896Z,72.11
2023-05-25T06:25:09.983Z,71.79
2023-05-25T06:27:55.948Z,70.61
2023-05-25T06:30:49.194Z,69.89
2023-05-25T06:33:22.838Z,68.89
2023-05-25T06:36:06.580Z,68.59
2023-05-25T06:38:52.306Z,68.59
2023-05-25T06:41:25.781Z,68.08
2023-05-25T06:44:33.177Z,67.37
2023-05-25T06:47:37.062Z,66.89
2023-05-25T06:50:53.161Z,66.46
2023-05-25T06:53:36.363Z,66.19
2023-05-25T06:56:17.554Z,66.33
2023-05-25T06:58:56.423Z,66.62
2023-05-25T07:01:42.450Z,66.64
2023-05-25T07:04:13.291Z,65.85
2023-05-25T07:06:49.277Z,65.34
2023-05-25T07:09:30.204Z,65.15
2023-05-25T07:12:10.161Z,64.25
2023-05-25T07:14:45.817Z,64.41
2023-05-25T07:18:38.587Z,64.36
2023-05-25T07:21:12.311Z,64.56
2023-05-25T07:24:13.243Z,64.67
2023-05-25T07:26:52.284Z,64.28
2023-05-25T07:29:27.639Z,63.84
2023-05-25T07:32:19.559Z,64.27
2023-05-25T07:34:54.495Z,64.32
2023-05-25T07:37:31.567Z,64.83
2023-05-25T07:40:19.321Z,65.07
2023-05-25T07:42:52.559Z,64.85
2023-05-25T07:45:46.742Z,64.73
2023-05-25T07:48:19.245Z,64.62
2023-05-25T07:50:55.662Z,64.69
2023-05-25T07:53:34.410Z,64.62
2023-05-25T07:56:14.789Z,63.20
2023-05-25T07:58:45.847Z,62.54
2023-05-25T08:01:18.337Z,62.47
2023-05-25T08:03:50.275Z,61.90
2023-05-25T08:06:19.265Z,61.05
2023-05-25T08:09:00.766Z,60.53
2023-05-25T08:11:39.606Z,59.98
2023-05-25T08:14:13.250Z,59.26
2023-05-25T08:16:46.105Z,59.51
2023-05-25T08:22:45.321Z,59.39
2023-05-25T08:25:28.749Z,59.53
2023-05-25T08:28:03.114Z,58.68
2023-05-25T08:30:43.934Z,58.48
2023-05-25T08:33:20.937Z,58.87
2023-05-25T08:36:01.254Z,58.49
2023-05-25T08:38:34.960Z,57.95
2023-05-25T08:41:08.302Z,58.31
2023-05-25T08:43:42.381Z,57.86
2023-05-25T08:46:17.590Z,57.13
2023-05-25T08:48:54.690Z,56.57
2023-05-25T08:51:33.549Z,56.21
2023-05-25T08:54:13.955Z,55.15
2023-05-25T08:57:05.075Z,54.89
2023-05-25T09:00:11.869Z,53.35
2023-05-25T09:03:51.515Z,52.67
2023-05-25T09:06:24.922Z,52.28
2023-05-25T09:08:56.158Z,52.16
2023-05-25T09:11:38.986Z,51.95
2023-05-25T09:14:28.600Z,52.96
2023-05-25T09:17:04.153Z,52.85
2023-05-25T09:19:45.509Z,52.90
2023-05-25T09:22:30.882Z,52.92
2023-05-25T09:25:06.906Z,52.97
2023-05-25T09:27:48.282Z,52.28
2023-05-25T09:30:36.202Z,52.06
2023-05-25T09:33:20.658Z,52.46
2023-05-25T09:36:01.388Z,52.64
2023-05-25T09:42:05.423Z,52.07
2023-05-25T09:44:43.515Z,52.45
2023-05-25T09:47:23.535Z,52.45
2023-05-25T09:50:07.559Z,52.01
2023-05-25T09:53:02.188Z,51.48
2023-05-25T09:56:06.041Z,50.54
2023-05-25T10:03:27.296Z,49.17
2023-05-25T10:06:02.417Z,49.12
2023-05-25T10:08:36.520Z,49.51
2023-05-25T10:11:21.508Z,50.19
2023-05-25T10:15:07.280Z,51.47
2023-05-25T10:18:12.851Z,51.64
2023-05-25T10:20:45.268Z,51.90
2023-05-25T10:23:34.077Z,51.87
2023-05-25T10:26:33.977Z,51.97
2023-05-25T10:29:12.577Z,52.64
2023-05-25T10:31:55.213Z,53.60
2023-05-25T10:34:39.331Z,54.93
2023-05-25T10:37:16.083Z,57.20
2023-05-25T10:40:10.555Z,58.50
2023-05-25T10:42:48.476Z,59.59
2023-05-25T10:45:27.125Z,60.15
2023-05-25T10:48:09.925Z,60.40
2023-05-25T10:50:54.953Z,60.63
2023-05-25T10:53:50.521Z,61.55
2023-05-25T10:56:33.462Z,61.81
2023-05-25T10:59:14.374Z,62.23
2023-05-25T11:02:06.853Z,62.90
2023-05-25T11:06:08.272Z,63.52
2023-05-25T11:09:03.317Z,62.61
2023-05-25T11:12:05.249Z,63.00
2023-05-25T11:14:40.978Z,63.07
2023-05-25T11:17:43.746Z,63.21
2023-05-25T11:20:42.461Z,63.47
2023-05-25T11:23:41.074Z,64.10
2023-05-25T11:26:17.573Z,64.28
2023-05-25T11:29:00.873Z,64.94
2023-05-25T11:31:43.618Z,65.71
2023-05-25T11:34:39.469Z,66.06
2023-05-25T11:37:15.954Z,66.02
2023-05-25T11:39:54.727Z,67.51
2023-05-25T11:42:30.092Z,68.38
2023-05-25T11:45:21.432Z,68.88
2023-05-25T11:47:57.753Z,69.22
2023-05-25T11:50:35.549Z,68.76
2023-05-25T11:53:34.654Z,68.84
2023-05-25T11:56:36.363Z,69.55
2023-05-25T11:59:17.847Z,69.86
2023-05-25T12:02:24.460Z,69.32
2023-05-25T12:05:07.491Z,69.11
2023-05-25T12:08:00.678Z,68.14
2023-05-25T12:10:37.580Z,67.59
2023-05-25T12:13:14.986Z,67.70
2023-05-25T12:15:52.718Z,66.26
2023-05-25T12:20:12.248Z,64.95
2023-05-25T12:22:52.186Z,63.54
2023-05-25T12:25:24.576Z,62.41
2023-05-25T12:28:26.657Z,61.87
2023-05-25T12:34:38.329Z,61.16
2023-05-25T12:37:26.940Z,60.50
2023-05-25T12:40:29.112Z,59.57
2023-05-25T12:43:35.225Z,58.86
2023-05-25T12:46:52.287Z,58.89
2023-05-25T12:53:44.504Z,57.41
2023-05-25T12:56:41.097Z,56.63
2023-05-25T12:59:23.836Z,55.93
2023-05-25T13:02:02.947Z,54.77
2023-05-25T13:04:38.311Z,54.70
2023-05-25T13:07:15.516Z,53.80
2023-05-25T13:10:18.090Z,54.15
2023-05-25T13:12:52.706Z,54.54
2023-05-25T13:15:32.040Z,54.56
2023-05-25T13:18:15.107Z,54.32
2023-05-25T13:25:23.095Z,53.63
2023-05-25T13:28:25.363Z,54.28
2023-05-25T13:31:39.470Z,54.17
2023-05-25T13:34:25.254Z,53.92
2023-05-25T13:37:00.970Z,53.81
2023-05-25T13:39:37.984Z,53.03
2023-05-25T13:42:44.101Z,52.87
2023-05-25T13:45:17.781Z,53.48
2023-05-25T13:47:48.398Z,53.62
2023-05-25T13:50:35.118Z,53.55
2023-05-25T13:53:26.429Z,52.82
2023-05-25T13:56:01.700Z,52.94
2023-05-25T13:59:08.680Z,52.98
2023-05-25T14:01:45.261Z,52.44
2023-05-25T14:04:23.853Z,52.75
2023-05-25T14:07:11.093Z,53.40
2023-05-25T14:10:13.169Z,52.77
2023-05-25T14:13:13.328Z,52.23
2023-05-25T14:15:57.831Z,50.59
2023-05-25T14:18:39.517Z,49.85
2023-05-25T14:21:21.562Z,49.72
2023-05-25T14:23:54.644Z,49.92
2023-05-25T14:26:27.978Z,49.45
2023-05-25T14:29:03.448Z,49.75
2023-05-25T14:32:16.155Z,49.43
2023-05-25T14:35:29.897Z,49.49
2023-05-25T14:39:15.102Z,49.89
2023-05-25T14:41:56.052Z,50.98
2023-05-25T14:44:35.975Z,51.58
2023-05-25T14:47:55.530Z,51.77
2023-05-25T14:50:48.869Z,53.41
2023-05-25T14:54:05.987Z,53.59
2023-05-25T14:57:52.853Z,54.50
2023-05-25T15:00:46.712Z,56.18
2023-05-25T15:03:41.340Z,57.53
2023-05-25T15:06:23.166Z,58.75
2023-05-25T15:09:02.699Z,59.84
2023-05-25T15:26:47.551Z,57.72
2023-05-25T15:29:24.329Z,55.87
2023-05-25T15:31:55.950Z,56.64
2023-05-25T15:34:41.151Z,57.24
2023-05-25T15:37:38.526Z,57.73
2023-05-25T15:40:13.000Z,58.29
2023-05-25T15:43:22.064Z,58.75
2023-05-25T15:46:21.322Z,59.43
2023-05-25T15:48:57.212Z,59.81
2023-05-25T15:52:09.657Z,60.18
2023-05-25T15:57:36.953Z,60.44
2023-05-25T16:00:30.719Z,60.40
2023-05-25T16:03:35.472Z,60.35
2023-05-25T16:07:18.646Z,60.56
2023-05-25T16:11:00.348Z,60.28
2023-05-25T16:13:55.369Z,60.30
2023-05-25T16:16:48.047Z,60.69
2023-05-25T16:19:26.357Z,61.16
2023-05-25T16:22:26.808Z,61.82
2023-05-25T16:25:36.482Z,62.19
2023-05-25T16:28:16.793Z,62.32
2023-05-25T16:35:12.724Z,61.93
2023-05-25T16:37:52.991Z,61.61
2023-05-25T16:40:40.364Z,60.63
2023-05-25T16:43:17.601Z,60.33
2023-05-25T16:48:34.352Z,60.01
2023-05-25T16:51:17.702Z,59.20
2023-05-25T16:54:04.867Z,58.56
2023-05-25T16:56:41.234Z,57.95
2023-05-25T16:59:18.920Z,57.26
2023-05-25T17:02:03.927Z,56.23
2023-05-25T17:04:53.153Z,54.90
2023-05-25T17:07:42.629Z,54.66
2023-05-25T17:10:23.122Z,53.80
2023-05-25T17:13:04.744Z,53.52
2023-05-25T17:15:44.035Z,53.61
2023-05-25T17:18:39.494Z,54.35
2023-05-25T17:22:15.856Z,54.78
2023-05-25T17:25:34.287Z,55.56
2023-05-25T17:28:12.945Z,56.62
2023-05-25T17:31:00.512Z,57.51
2023-05-25T17:33:43.628Z,58.06
2023-05-25T17:36:26.440Z,58.46
2023-05-25T17:43:44.397Z,60.13
2023-05-25T17:46:20.823Z,60.49
2023-05-25T17:49:14.814Z,60.63
2023-05-25T17:52:24.718Z,60.84
2023-05-25T17:55:06.136Z,60.98
2023-05-25T17:58:09.754Z,61.22
2023-05-25T18:00:52.581Z,61.36
2023-05-25T18:03:30.518Z,61.68
2023-05-25T18:09:13.043Z,62.25
2023-05-25T18:12:01.069Z,62.42
2023-05-25T18:14:40.894Z,62.78
2023-05-25T18:17:16.128Z,63.02
2023-05-25T18:19:56.053Z,63.40
2023-05-25T18:22:37.829Z,63.74
2023-05-25T18:25:16.221Z,63.84
2023-05-25T18:28:00.459Z,64.14
2023-05-25T18:31:30.481Z,64.26
2023-05-25T18:39:16.718Z,64.74
2023-05-25T18:43:07.451Z,64.96
2023-05-25T18:47:00.749Z,65.16
2023-05-25T18:49:37.687Z,65.54
2023-05-25T18:52:24.983Z,65.76
2023-05-25T18:55:32.318Z,66.13
2023-05-25T18:58:18.178Z,66.41
2023-05-25T19:02:38.142Z,66.58
2023-05-25T19:05:53.818Z,66.69
2023-05-25T19:10:16.189Z,67.02
2023-05-25T19:13:51.796Z,67.61
2023-05-25T19:16:48.162Z,68.02
2023-05-25T19:20:25.586Z,67.88
2023-05-25T21:57:04.386Z,78.11
2023-05-25T22:04:03.560Z,78.42
